Bei Facebook empfehlenBei Twitter postenGoogle plusPinterest

Das Wetter im Erzgebirge am 14.08.2016

Wetter und Klima am 14.08.2016 Holzhau im Erzgebirge (630m ü.NN)
Letzte gemessene Temperatur und Uhrzeit der Messung23:45:00 Uhr9.30 °C
Temperatur (Maximum / Höchstwert) und Uhrzeit der Messung16:45:00 Uhr22.80 °C
Temperatur (Minimum / Tiefstwert) und Uhrzeit der Messung23:45:009.30 °C
Errechneter Absolutwert der Temperaturschwankungen zwischen Tmin und Tmax des Tages13.50 K
Errechnete Tagesmitteltemperatur15.51250 °C
Gesamt - Niederschlag des Tages (in flüssiger Form)0.00 Liter / m²
Luftdruck (Maximum / Höchstwert) und Zeitpunkt der Messung23:30:00 Uhr1020.10 hPa
Luftdruck (Minimum / Tiefstwert) und Zeitpunkt der Messung00:15:00 Uhr1018.40 hPa
Errechneter Absolutwert der Luftdruckschwankungen des Tages1.70 hPa
Höchste gemessene Windgeschwindigkeit und Uhrzeit der Messung23:45:00 Uhr0.00 km/h
Errechnete Windhäufigkeit in Relation zu den Messwerten des Tages0.00000 %
Niedrigste Windkühle (Windchill) und Zeitpunkt der Messung23:45:00 Uhr9.30 °C
Taupunkt (Maximum / Höchstwert) und Uhrzeit der Messung09:30:00 Uhr16.50 °C
Taupunkt (Minimum / Tiefstwert) und Uhrzeit der Messung23:45:007.40 °C
Anzahl der automatisch eingelesenen Messwerte 96

Detaillierte Wetter- und Klima- Messwerte für den 14.08.2016 in Holzhau im Erzgebirge (630m ü.NN)
ZeitTemperaturLuftdruckRel. LuftfeuchteWindWindrichtungWindchillTaupunktNiederschlag l/m²
23:45:009.30 °C1019.80 hPa88.00 %7.40 °C 
23:30:009.60 °C1020.10 hPa88.00 %7.70 °C 
23:15:009.80 °C1019.90 hPa87.00 %7.70 °C 
23:00:0010.10 °C1019.80 hPa87.00 %8.00 °C 
22:45:0010.30 °C1020.10 hPa86.00 %8.10 °C 
22:30:0010.70 °C1019.70 hPa86.00 %8.50 °C 
22:15:0011.10 °C1019.80 hPa85.00 %8.70 °C 
22:00:0011.50 °C1019.90 hPa84.00 %8.90 °C 
21:45:0011.90 °C1019.70 hPa84.00 %9.30 °C 
21:30:0012.40 °C1019.80 hPa82.00 %9.40 °C 
21:15:0012.90 °C1019.90 hPa81.00 %9.70 °C 
21:00:0013.50 °C1019.80 hPa80.00 %10.10 °C 
20:45:0014.30 °C1019.60 hPa79.00 %10.70 °C 
20:30:0015.10 °C1019.60 hPa77.00 %11.10 °C 
20:15:0015.90 °C1019.50 hPa76.00 %11.70 °C 
20:00:0016.80 °C1019.50 hPa74.00 %12.10 °C 
19:45:0017.60 °C1019.30 hPa73.00 %12.70 °C 
19:30:0018.10 °C1019.10 hPa71.00 %12.80 °C 
19:15:0018.50 °C1019.10 hPa70.00 %12.90 °C 
19:00:0019.10 °C1019.10 hPa69.00 %13.30 °C 
18:45:0019.50 °C1019.20 hPa68.00 %13.40 °C 
18:30:0019.60 °C1019.00 hPa68.00 %13.50 °C 
18:15:0019.90 °C1019.10 hPa66.00 %13.40 °C 
18:00:0020.60 °C1019.00 hPa66.00 %14.00 °C 
17:45:0021.20 °C1019.00 hPa65.00 %14.40 °C 
17:30:0021.10 °C1018.90 hPa66.00 %14.50 °C 
17:15:0021.40 °C1019.10 hPa63.00 %14.10 °C 
17:00:0022.10 °C1018.90 hPa62.00 %14.50 °C 
16:45:0022.80 °C1018.90 hPa63.00 %15.40 °C 
16:30:0022.30 °C1018.90 hPa64.00 %15.20 °C 
16:15:0021.90 °C1019.10 hPa64.00 %14.80 °C 
16:00:0022.40 °C1019.10 hPa63.00 %15.00 °C 
15:45:0022.40 °C1019.00 hPa66.00 %15.70 °C 
15:30:0021.30 °C1018.90 hPa69.00 %15.40 °C 
15:15:0021.10 °C1019.20 hPa68.00 %15.00 °C 
15:00:0020.60 °C1019.20 hPa71.00 %15.20 °C 
14:45:0019.80 °C1019.20 hPa72.00 %14.60 °C 
14:30:0019.60 °C1019.20 hPa71.00 %14.20 °C 
14:15:0019.90 °C1019.20 hPa69.00 %14.00 °C 
14:00:0021.30 °C1019.20 hPa66.00 %14.70 °C 
13:45:0021.80 °C1019.00 hPa67.00 %15.40 °C 
13:30:0021.60 °C1018.90 hPa65.00 %14.70 °C 
13:15:0022.80 °C1019.00 hPa66.00 %16.10 °C 
13:00:0021.90 °C1018.90 hPa66.00 %15.30 °C 
12:45:0022.30 °C1018.90 hPa66.00 %15.60 °C 
12:30:0021.40 °C1019.00 hPa70.00 %15.70 °C 
12:15:0021.30 °C1019.30 hPa68.00 %15.20 °C 
12:00:0021.30 °C1019.10 hPa71.00 %15.80 °C 
11:45:0020.60 °C1019.20 hPa71.00 %15.20 °C 
11:30:0021.40 °C1019.20 hPa71.00 %15.90 °C 
11:15:0021.00 °C1019.20 hPa73.00 %16.00 °C 
11:00:0020.60 °C1019.00 hPa75.00 %16.00 °C 
10:45:0020.30 °C1019.10 hPa77.00 %16.10 °C 
10:30:0019.70 °C1019.00 hPa81.00 %16.30 °C 
10:15:0018.60 °C1018.90 hPa82.00 %15.50 °C 
10:00:0018.70 °C1019.10 hPa83.00 %15.80 °C 
09:45:0018.70 °C1018.90 hPa86.00 %16.30 °C 
09:30:0018.30 °C1019.00 hPa89.00 %16.50 °C 
09:15:0017.90 °C1019.00 hPa91.00 %16.40 °C 
09:00:0017.40 °C1018.80 hPa94.00 %16.40 °C 
08:45:0015.80 °C1019.00 hPa95.00 %15.00 °C 
08:30:0014.40 °C1018.90 hPa94.00 %13.40 °C 
08:15:0013.30 °C1019.00 hPa95.00 %12.50 °C 
08:00:0012.40 °C1018.90 hPa94.00 %11.50 °C 
07:45:0011.40 °C1019.00 hPa94.00 %10.50 °C 
07:30:0010.80 °C1019.00 hPa94.00 %9.90 °C 
07:15:0010.40 °C1018.80 hPa94.00 %9.50 °C 
07:00:0010.10 °C1018.80 hPa94.00 %9.20 °C 
06:45:009.60 °C1018.80 hPa94.00 %8.70 °C 
06:30:009.60 °C1018.80 hPa94.00 %8.70 °C 
06:15:009.60 °C1018.80 hPa93.00 %8.50 °C 
06:00:009.80 °C1018.70 hPa93.00 %8.70 °C 
05:45:009.60 °C1018.70 hPa93.00 %8.50 °C 
05:30:009.50 °C1018.70 hPa93.00 %8.40 °C 
05:15:009.50 °C1018.70 hPa93.00 %8.40 °C 
05:00:009.80 °C1018.70 hPa93.00 %8.70 °C 
04:45:0010.20 °C1018.60 hPa93.00 %9.10 °C 
04:30:0010.50 °C1018.60 hPa93.00 %9.40 °C 
04:15:0010.50 °C1018.60 hPa93.00 %9.40 °C 
04:00:0010.30 °C1018.60 hPa93.00 %9.20 °C 
03:45:009.90 °C1018.80 hPa92.00 %8.70 °C 
03:30:0010.10 °C1018.80 hPa92.00 %8.90 °C 
03:15:0010.20 °C1018.80 hPa92.00 %9.00 °C 
03:00:0010.30 °C1018.80 hPa92.00 %9.10 °C 
02:45:0010.40 °C1019.00 hPa92.00 %9.20 °C 
02:30:0010.50 °C1018.80 hPa92.00 %9.30 °C 
02:15:0010.70 °C1018.90 hPa92.00 %9.50 °C 
02:00:0010.80 °C1018.80 hPa91.00 %9.40 °C 
01:45:0010.90 °C1018.80 hPa91.00 %9.50 °C 
01:30:0011.10 °C1018.70 hPa91.00 %9.70 °C 
01:15:0011.30 °C1018.70 hPa91.00 %9.90 °C 
01:00:0011.40 °C1018.80 hPa91.00 %10.00 °C 
00:45:0011.60 °C1018.70 hPa90.00 %10.00 °C 
00:30:0011.80 °C1018.50 hPa90.00 %10.20 °C 
00:15:0011.90 °C1018.40 hPa90.00 %10.30 °C 
00:00:0012.30 °C1018.40 hPa90.00 %10.70 °C 

Permanenter Link zu dieser Seite: Wetter im Erzgebirge am 14.08.2016
Performance-Info: Die Erstellung der Seite / Statistik(en) / Tabelle(n) erforderte 5 Datenbankserver-Abfrage(n) und dauerte 101 Millisekunden. (Dieser Messwert ist von der Gesamt-Auslastung des Servers abhängig.)
Erzgebirge - Wetter | Erzgebirge - Wetter (Mobilgeräte) | Komplette Klimadatenbank